KMTJ/MTJ METAR and TAF weather

Enter ICAO airport designator
Station Type Date Time Source
KMTJ METAR 2020/12/01 20:53 UTC NOAA

KMTJ 012053Z AUTO 29012G17KT 10SM FEW065 04/M11 A3020 RMK AO2 SLP230 T00391111 56012


Station Type Date Time Source
KMTJ Decoded METAR 2020/12/01 20:53 UTC NOAA

MONTROSE REGIONAL AIRPORT, CO, United States (KMTJ) 38-30N 107-54W 1750M
Dec 01, 2020 - 03:53 PM EST / 2020.12.01 2053 UTC
Wind: from the WNW (290 degrees) at 14 MPH (12 KT) gusting to 20 MPH (17 KT):0
Visibility: 10 mile(s):0
Sky conditions: mostly clear
Temperature: 39.0 F (3.9 C)
Dew Point: 12.0 F (-11.1 C)
Relative Humidity: 32%
Pressure (altimeter): 30.2 in. Hg (1022 hPa)
Pressure tendency: 0.04 inches (1.2 hPa) lower than three hours ago
ob: KMTJ 012053Z AUTO 29012G17KT 10SM FEW065 04/M11 A3020 RMK AO2 SLP230 T00391111 56012
cycle: 21

Station Type Date Time Source
KMTJ TAF 2020/12/01 21:33 UTC NOAA

TAF
AMD KMTJ 012030Z 0121/0218 31012G25KT P6SM SCT060
FM020300 15005KT P6SM FEW040 SCT080
FM020900 13005KT P6SM BKN200

Example: see airport list